createdAt,value
2022-11-29T00:00:57.803Z,75.93
2022-11-29T00:03:41.316Z,76.35
2022-11-29T00:06:10.612Z,75.88
2022-11-29T00:08:46.270Z,75.84
2022-11-29T00:15:28.567Z,76.62
2022-11-29T00:18:30.419Z,76.26
2022-11-29T00:21:51.550Z,76.06
2022-11-29T00:24:18.040Z,76.44
2022-11-29T00:26:44.596Z,76.81
2022-11-29T00:29:12.188Z,76.80
2022-11-29T00:31:42.290Z,77.57
2022-11-29T00:34:10.731Z,77.47
2022-11-29T00:41:42.402Z,77.61
2022-11-29T00:44:19.845Z,77.16
2022-11-29T00:46:56.456Z,78.85
2022-11-29T00:50:19.803Z,78.51
2022-11-29T00:52:46.355Z,78.19
2022-11-29T00:55:35.091Z,78.56
2022-11-29T00:58:42.693Z,78.60
2022-11-29T01:01:12.303Z,78.26
2022-11-29T01:07:19.849Z,77.27
2022-11-29T01:13:58.875Z,78.54
2022-11-29T01:16:50.550Z,79.03
2022-11-29T01:22:59.230Z,78.47
2022-11-29T01:25:25.802Z,77.85
2022-11-29T01:28:18.319Z,77.44
2022-11-29T01:30:53.327Z,76.55
2022-11-29T01:33:26.024Z,76.00
2022-11-29T01:35:54.118Z,76.31
2022-11-29T01:38:24.027Z,75.78
2022-11-29T01:47:38.908Z,74.74
2022-11-29T01:50:08.839Z,75.55
2022-11-29T01:56:55.821Z,76.18
2022-11-29T01:59:26.059Z,75.60
2022-11-29T02:02:15.062Z,76.67
2022-11-29T02:04:48.544Z,76.09
2022-11-29T02:07:15.513Z,76.29
2022-11-29T02:13:35.526Z,76.51
2022-11-29T02:16:13.521Z,76.71
2022-11-29T02:18:42.926Z,76.78
2022-11-29T02:21:24.310Z,77.31
2022-11-29T02:24:11.369Z,77.55
2022-11-29T02:26:59.751Z,76.61
2022-11-29T02:29:59.324Z,76.38
2022-11-29T02:33:21.067Z,76.88
2022-11-29T02:36:28.479Z,76.36
2022-11-29T02:43:37.595Z,76.38
2022-11-29T02:46:14.447Z,76.67
2022-11-29T02:48:51.869Z,76.84
2022-11-29T02:51:52.932Z,76.43
2022-11-29T02:54:38.958Z,77.38
2022-11-29T02:57:29.760Z,77.15
2022-11-29T03:00:10.932Z,77.71
2022-11-29T03:06:24.430Z,77.90
2022-11-29T03:09:35.363Z,78.29
2022-11-29T03:12:16.451Z,77.87
2022-11-29T03:15:10.830Z,77.57
2022-11-29T03:18:02.270Z,78.99
2022-11-29T03:21:09.291Z,79.20
2022-11-29T03:24:04.648Z,78.67
2022-11-29T03:30:22.375Z,80.03
2022-11-29T03:33:01.905Z,78.98
2022-11-29T03:35:48.210Z,79.83
2022-11-29T03:38:53.064Z,79.87
2022-11-29T03:42:08.712Z,78.87
2022-11-29T03:47:49.103Z,77.73
2022-11-29T04:06:30.080Z,78.25
2022-11-29T04:11:44.119Z,78.41
2022-11-29T04:15:03.956Z,77.97
2022-11-29T04:17:49.704Z,77.10
2022-11-29T04:31:50.959Z,76.35
2022-11-29T04:45:54.165Z,75.71
2022-11-29T04:57:10.469Z,75.07
2022-11-29T05:28:27.958Z,72.50
2022-11-29T05:31:00.356Z,72.71
2022-11-29T05:54:26.031Z,73.82
2022-11-29T05:57:28.178Z,73.52
2022-11-29T05:59:56.750Z,74.16
2022-11-29T06:02:26.401Z,73.63
2022-11-29T06:05:07.711Z,74.97
2022-11-29T06:07:50.154Z,75.29
2022-11-29T06:10:21.788Z,75.27
2022-11-29T06:12:59.700Z,75.11
2022-11-29T06:15:58.630Z,74.54
2022-11-29T06:18:51.700Z,74.46
2022-11-29T06:21:29.194Z,74.46
2022-11-29T06:23:58.686Z,74.67
2022-11-29T06:26:37.304Z,74.05
2022-11-29T06:29:22.448Z,75.33
2022-11-29T06:31:59.967Z,75.78
2022-11-29T06:34:33.632Z,76.75
2022-11-29T06:37:27.647Z,75.67
2022-11-29T06:39:55.028Z,75.58
2022-11-29T06:42:21.528Z,76.32
2022-11-29T06:44:48.263Z,76.86
2022-11-29T06:47:26.877Z,76.85
2022-11-29T06:50:03.964Z,77.04
2022-11-29T06:53:04.267Z,76.98
2022-11-29T06:55:43.818Z,76.16
2022-11-29T06:58:32.852Z,77.64
2022-11-29T07:01:37.503Z,77.63
2022-11-29T07:04:18.004Z,78.59
2022-11-29T07:06:47.484Z,77.60
2022-11-29T07:09:17.119Z,77.89
2022-11-29T07:11:44.617Z,78.13
2022-11-29T07:14:11.801Z,77.42
2022-11-29T07:16:57.579Z,77.21
2022-11-29T07:19:30.732Z,77.16
2022-11-29T07:21:57.174Z,75.60
2022-11-29T07:24:56.109Z,75.29
2022-11-29T07:27:25.628Z,75.13
2022-11-29T07:30:10.890Z,74.11
2022-11-29T07:33:00.657Z,73.92
2022-11-29T07:36:09.197Z,74.47
2022-11-29T07:38:50.805Z,74.77
2022-11-29T07:41:26.455Z,74.40
2022-11-29T07:44:02.100Z,74.74
2022-11-29T07:46:28.659Z,73.94
2022-11-29T07:48:55.316Z,73.90
2022-11-29T07:51:21.981Z,74.54
2022-11-29T07:53:48.568Z,74.24
2022-11-29T07:56:15.123Z,72.96
2022-11-29T07:58:41.975Z,72.71
2022-11-29T08:01:08.808Z,71.58
2022-11-29T08:03:35.344Z,71.11
2022-11-29T08:06:02.598Z,71.03
2022-11-29T08:08:29.174Z,71.14
2022-11-29T08:10:55.812Z,71.55
2022-11-29T08:13:24.862Z,71.72
2022-11-29T08:15:51.424Z,71.96
2022-11-29T08:18:18.008Z,72.14
2022-11-29T08:20:45.037Z,72.59
2022-11-29T08:23:12.991Z,72.06
2022-11-29T08:25:39.663Z,71.97
2022-11-29T08:28:06.583Z,71.67
2022-11-29T08:30:33.303Z,72.23
2022-11-29T08:32:59.823Z,70.75
2022-11-29T08:35:26.428Z,71.65
2022-11-29T08:37:54.439Z,70.98
2022-11-29T08:40:21.183Z,70.25
2022-11-29T08:42:47.703Z,70.21
2022-11-29T08:45:14.209Z,68.59
2022-11-29T08:47:40.850Z,67.61
2022-11-29T08:50:09.505Z,68.59
2022-11-29T08:52:38.632Z,69.02
2022-11-29T08:55:05.438Z,68.88
2022-11-29T08:57:39.939Z,69.35
2022-11-29T09:00:09.411Z,69.22
2022-11-29T09:02:36.725Z,69.44
2022-11-29T09:05:04.487Z,69.17
2022-11-29T09:07:31.275Z,68.65
2022-11-29T09:09:57.780Z,68.69
2022-11-29T09:12:26.840Z,69.12
2022-11-29T09:14:53.516Z,68.81
2022-11-29T09:17:20.119Z,68.93
2022-11-29T09:19:46.612Z,67.92
2022-11-29T09:22:13.183Z,67.45
2022-11-29T09:24:42.894Z,68.86
2022-11-29T09:27:09.567Z,69.88
2022-11-29T09:29:36.111Z,69.12
2022-11-29T09:32:02.650Z,68.69
2022-11-29T09:34:29.164Z,68.52
2022-11-29T09:36:55.679Z,67.19
2022-11-29T09:39:22.325Z,66.58
2022-11-29T09:42:00.718Z,67.29
2022-11-29T09:45:05.609Z,66.42
2022-11-29T09:47:50.806Z,64.19
2022-11-29T09:50:37.863Z,67.13
2022-11-29T09:53:22.668Z,68.02
2022-11-29T09:56:17.544Z,66.08
2022-11-29T09:58:57.715Z,64.35
2022-11-29T10:01:28.327Z,65.46
2022-11-29T10:04:03.047Z,63.94
2022-11-29T10:06:33.948Z,66.01
2022-11-29T10:09:13.828Z,66.29
2022-11-29T10:29:41.052Z,67.18
2022-11-29T10:32:13.526Z,66.66
2022-11-29T10:34:40.396Z,65.84
2022-11-29T10:37:13.194Z,60.96
2022-11-29T10:39:55.911Z,61.71
2022-11-29T10:42:23.864Z,62.90
2022-11-29T10:44:53.371Z,63.69
2022-11-29T10:47:20.003Z,64.08
2022-11-29T10:49:46.519Z,66.02
2022-11-29T10:52:23.095Z,65.52
2022-11-29T10:54:53.934Z,62.28
2022-11-29T10:57:22.175Z,64.19
2022-11-29T11:00:00.091Z,64.49
2022-11-29T11:02:28.082Z,62.29
2022-11-29T11:04:54.697Z,63.42
2022-11-29T11:07:29.336Z,66.23
2022-11-29T11:09:57.259Z,65.42
2022-11-29T11:12:30.366Z,66.93
2022-11-29T11:15:26.212Z,67.40
2022-11-29T11:18:01.985Z,67.32
2022-11-29T11:20:30.079Z,67.52
2022-11-29T11:22:59.259Z,66.24
2022-11-29T11:25:31.480Z,65.39
2022-11-29T11:28:13.698Z,63.84
2022-11-29T11:30:40.633Z,64.17
2022-11-29T11:33:30.839Z,64.98
2022-11-29T11:36:03.945Z,66.09
2022-11-29T11:38:30.717Z,66.63
2022-11-29T11:41:05.665Z,68.51
2022-11-29T11:43:32.804Z,68.41
2022-11-29T11:45:59.370Z,69.84
2022-11-29T11:48:25.950Z,69.07
2022-11-29T11:50:58.023Z,69.30
2022-11-29T11:53:33.403Z,67.02
2022-11-29T11:56:10.759Z,67.95
2022-11-29T11:58:57.100Z,69.16
2022-11-29T12:01:23.482Z,69.69
2022-11-29T12:04:12.720Z,68.51
2022-11-29T12:07:02.269Z,68.49
2022-11-29T12:09:47.923Z,68.99
2022-11-29T12:12:28.944Z,70.38
2022-11-29T12:15:07.549Z,69.40
2022-11-29T12:17:45.728Z,71.12
2022-11-29T12:20:46.876Z,71.08
2022-11-29T12:23:13.282Z,71.55
2022-11-29T12:25:51.009Z,71.83
2022-11-29T12:28:20.854Z,71.94
2022-11-29T12:31:12.537Z,71.70
2022-11-29T12:34:03.507Z,70.66
2022-11-29T12:36:47.540Z,70.36
2022-11-29T12:39:22.672Z,69.50
2022-11-29T12:42:19.711Z,69.38
2022-11-29T12:45:04.351Z,69.88
2022-11-29T12:47:52.466Z,70.65
2022-11-29T12:50:26.074Z,69.17
2022-11-29T12:52:59.267Z,69.70
2022-11-29T12:55:44.559Z,69.65
2022-11-29T12:58:16.583Z,69.87
2022-11-29T13:01:06.343Z,68.69
2022-11-29T13:03:38.952Z,69.21
2022-11-29T13:06:26.387Z,68.05
2022-11-29T13:09:31.920Z,68.54
2022-11-29T13:12:13.477Z,70.13
2022-11-29T13:14:51.760Z,69.38
2022-11-29T13:17:33.380Z,69.05
2022-11-29T13:20:17.973Z,68.18
2022-11-29T13:23:08.063Z,68.17
2022-11-29T13:25:37.924Z,68.59
2022-11-29T13:28:29.505Z,69.77
2022-11-29T13:31:00.682Z,70.22
2022-11-29T13:33:41.415Z,69.05
2022-11-29T13:36:21.369Z,69.68
2022-11-29T13:38:53.947Z,68.98
2022-11-29T13:41:30.912Z,69.07
2022-11-29T13:43:57.407Z,69.84
2022-11-29T13:46:30.635Z,69.56
2022-11-29T13:48:57.330Z,69.19
2022-11-29T13:51:37.556Z,69.65
2022-11-29T13:54:10.495Z,69.63
2022-11-29T13:56:41.020Z,69.31
2022-11-29T13:59:12.431Z,70.14
2022-11-29T14:01:52.293Z,70.84
2022-11-29T14:04:32.702Z,70.59
2022-11-29T14:07:04.920Z,71.03
2022-11-29T14:09:43.694Z,71.54
2022-11-29T14:12:22.279Z,71.30
2022-11-29T14:15:00.815Z,71.19
2022-11-29T14:17:53.515Z,71.10
2022-11-29T14:20:22.918Z,71.74
2022-11-29T14:23:04.659Z,71.66
2022-11-29T14:25:51.208Z,71.82
2022-11-29T14:28:21.478Z,71.72
2022-11-29T14:30:55.844Z,71.67
2022-11-29T14:33:44.149Z,72.70
2022-11-29T14:36:14.769Z,72.02
2022-11-29T14:39:04.606Z,72.40
2022-11-29T14:41:56.346Z,71.52
2022-11-29T14:44:28.426Z,72.00
2022-11-29T14:47:24.162Z,71.79
2022-11-29T14:49:52.015Z,71.47
2022-11-29T14:52:28.386Z,72.24
2022-11-29T14:55:02.763Z,72.57
2022-11-29T14:57:47.646Z,73.44
2022-11-29T15:00:28.314Z,73.36
2022-11-29T15:03:09.028Z,72.99
2022-11-29T15:06:18.023Z,71.60
2022-11-29T15:09:14.177Z,72.01
2022-11-29T15:11:48.477Z,71.82
2022-11-29T15:14:46.084Z,72.45
2022-11-29T15:17:30.701Z,71.16
2022-11-29T15:20:19.601Z,72.29
2022-11-29T15:22:51.221Z,71.65
2022-11-29T15:25:21.818Z,72.42
2022-11-29T15:28:05.472Z,71.99
2022-11-29T15:30:39.628Z,72.11
2022-11-29T15:33:21.107Z,72.68
2022-11-29T15:35:52.758Z,71.42
2022-11-29T15:38:20.644Z,71.99
2022-11-29T15:40:54.415Z,72.84
2022-11-29T15:43:28.259Z,73.26
2022-11-29T15:45:56.671Z,73.88
2022-11-29T15:48:31.379Z,74.17
2022-11-29T15:51:04.825Z,74.07
2022-11-29T15:53:36.760Z,74.26
2022-11-29T15:56:09.230Z,74.22
2022-11-29T15:58:36.670Z,75.08
2022-11-29T16:01:03.602Z,75.56
2022-11-29T16:03:34.779Z,76.26
2022-11-29T16:06:28.083Z,76.23
2022-11-29T16:08:54.649Z,77.12
2022-11-29T16:11:23.215Z,77.00
2022-11-29T16:14:21.358Z,76.52
2022-11-29T16:16:49.615Z,77.04
2022-11-29T16:19:24.773Z,76.57
2022-11-29T16:22:12.408Z,76.40
2022-11-29T16:24:41.222Z,76.95
2022-11-29T16:27:07.901Z,77.88
2022-11-29T16:29:37.449Z,78.17
2022-11-29T16:32:24.540Z,78.36
2022-11-29T16:34:51.472Z,78.16
2022-11-29T16:37:26.124Z,77.03
2022-11-29T16:39:57.095Z,76.05
2022-11-29T16:42:31.506Z,76.43
2022-11-29T16:45:02.073Z,76.25
2022-11-29T16:47:30.535Z,75.92
2022-11-29T16:50:03.195Z,76.34
2022-11-29T16:52:32.393Z,75.75
2022-11-29T16:54:58.948Z,77.16
2022-11-29T16:57:26.643Z,77.95
2022-11-29T16:59:53.110Z,78.24
2022-11-29T17:02:19.969Z,78.70
2022-11-29T17:04:46.820Z,78.09
2022-11-29T17:07:22.812Z,78.39
2022-11-29T17:09:49.329Z,78.40
2022-11-29T17:12:15.989Z,78.66
2022-11-29T17:14:42.588Z,78.69
2022-11-29T17:17:14.070Z,78.85
2022-11-29T17:19:40.528Z,78.72
2022-11-29T17:22:07.055Z,78.51
2022-11-29T17:24:33.537Z,79.22
2022-11-29T17:27:00.048Z,79.55
2022-11-29T17:29:26.545Z,79.62
2022-11-29T17:31:53.101Z,78.91
2022-11-29T17:34:20.208Z,78.86
2022-11-29T17:36:50.310Z,78.40
2022-11-29T17:39:16.977Z,78.00
2022-11-29T17:41:43.521Z,77.76
2022-11-29T17:44:10.310Z,77.71
2022-11-29T17:46:37.072Z,78.47
2022-11-29T17:49:08.394Z,78.29
2022-11-29T17:51:52.858Z,79.25
2022-11-29T17:54:20.226Z,80.45
2022-11-29T17:56:47.109Z,81.09
2022-11-29T17:59:13.734Z,81.74
2022-11-29T18:01:40.331Z,82.68
2022-11-29T18:04:07.494Z,82.57
2022-11-29T18:06:36.672Z,82.00
2022-11-29T18:09:04.435Z,82.19
2022-11-29T18:11:46.494Z,82.54
2022-11-29T18:14:19.118Z,82.21
2022-11-29T18:16:45.908Z,83.18
2022-11-29T18:19:17.765Z,81.98
2022-11-29T18:21:44.282Z,83.18
2022-11-29T18:24:10.898Z,82.53
2022-11-29T18:26:38.303Z,82.82
2022-11-29T18:29:05.794Z,82.56
2022-11-29T18:31:35.112Z,82.23
2022-11-29T18:34:04.283Z,81.95
2022-11-29T18:36:33.032Z,81.69
2022-11-29T18:39:01.659Z,81.46
2022-11-29T18:41:29.957Z,81.30
2022-11-29T18:44:05.298Z,81.72
2022-11-29T18:46:32.342Z,82.23
2022-11-29T18:49:00.255Z,83.34
2022-11-29T18:51:27.438Z,83.41
2022-11-29T18:53:54.087Z,83.06
2022-11-29T18:56:22.215Z,83.06
2022-11-29T18:59:03.272Z,83.22
2022-11-29T19:01:32.363Z,82.94
2022-11-29T19:04:00.126Z,82.86
2022-11-29T19:06:32.827Z,82.65
2022-11-29T19:09:04.858Z,82.10
2022-11-29T19:11:32.880Z,82.73
2022-11-29T19:14:01.815Z,82.59
2022-11-29T19:16:29.881Z,82.17
2022-11-29T19:18:58.209Z,82.49
2022-11-29T19:21:27.286Z,82.11
2022-11-29T19:23:58.894Z,82.68
2022-11-29T19:26:27.269Z,81.55
2022-11-29T19:28:55.097Z,81.18
2022-11-29T19:31:22.867Z,81.73
2022-11-29T19:33:49.394Z,81.50
2022-11-29T19:36:21.328Z,81.49
2022-11-29T19:38:53.152Z,82.13
2022-11-29T19:41:24.983Z,81.98
2022-11-29T19:43:52.104Z,81.99
2022-11-29T19:46:22.515Z,82.75
2022-11-29T19:48:48.927Z,82.36
2022-11-29T19:51:16.163Z,82.07
2022-11-29T19:53:42.668Z,82.38
2022-11-29T19:56:12.381Z,81.75
2022-11-29T19:58:39.063Z,82.33
2022-11-29T20:01:07.889Z,81.98
2022-11-29T20:03:35.002Z,82.19
2022-11-29T20:08:52.599Z,83.60
2022-11-29T20:11:21.555Z,83.89
2022-11-29T20:13:53.919Z,82.66
2022-11-29T20:16:20.443Z,82.36
2022-11-29T20:18:50.960Z,82.73
2022-11-29T20:21:21.016Z,83.01
2022-11-29T20:23:47.969Z,83.15
2022-11-29T20:26:20.133Z,82.07
2022-11-29T20:28:48.113Z,82.84
2022-11-29T20:31:19.481Z,82.04
2022-11-29T20:33:47.462Z,81.29
2022-11-29T20:36:38.031Z,81.29
2022-11-29T20:39:31.127Z,83.45
2022-11-29T20:42:13.165Z,83.20
2022-11-29T20:44:49.747Z,84.06
2022-11-29T20:47:18.610Z,83.57
2022-11-29T20:49:46.127Z,83.33
2022-11-29T20:52:32.263Z,83.19
2022-11-29T20:57:42.790Z,82.38
2022-11-29T21:00:11.233Z,82.71
2022-11-29T21:02:38.135Z,82.54
2022-11-29T21:05:05.568Z,81.95
2022-11-29T21:07:32.155Z,82.51
2022-11-29T21:10:01.413Z,82.71
2022-11-29T21:12:29.712Z,83.27
2022-11-29T21:14:56.646Z,83.24
2022-11-29T21:17:26.463Z,82.75
2022-11-29T21:19:56.843Z,83.53
2022-11-29T21:22:34.353Z,85.09
2022-11-29T21:25:19.415Z,84.91
2022-11-29T21:27:48.581Z,83.53
2022-11-29T21:30:20.635Z,83.53
2022-11-29T21:32:47.641Z,82.92
2022-11-29T21:35:16.813Z,82.49
2022-11-29T21:37:43.863Z,82.14
2022-11-29T21:40:11.651Z,82.81
2022-11-29T21:42:38.204Z,82.61
2022-11-29T21:45:09.305Z,82.25
2022-11-29T21:47:41.282Z,82.27
2022-11-29T21:50:08.332Z,81.71
2022-11-29T21:52:34.835Z,81.76
2022-11-29T21:55:02.242Z,81.13
2022-11-29T21:57:28.895Z,81.26
2022-11-29T21:59:55.400Z,80.33
2022-11-29T22:02:22.120Z,81.14
2022-11-29T22:04:48.964Z,80.07
2022-11-29T22:07:15.648Z,80.38
2022-11-29T22:09:42.270Z,80.18
2022-11-29T22:12:31.856Z,80.09
2022-11-29T22:14:55.357Z,81.22
2022-11-29T22:17:21.822Z,81.76
2022-11-29T22:19:48.357Z,80.23
2022-11-29T22:22:16.028Z,79.63
2022-11-29T22:24:42.718Z,80.43
2022-11-29T22:27:21.970Z,80.71
2022-11-29T22:29:48.472Z,79.58
2022-11-29T22:32:15.008Z,78.66
2022-11-29T22:34:41.482Z,78.92
2022-11-29T22:37:07.989Z,78.94
2022-11-29T22:39:34.822Z,78.36
2022-11-29T22:42:01.279Z,77.36
2022-11-29T22:44:27.804Z,76.75
2022-11-29T22:46:54.341Z,76.72
2022-11-29T22:49:21.061Z,77.18
2022-11-29T22:51:47.730Z,76.90
2022-11-29T22:54:14.230Z,78.81
2022-11-29T22:56:42.065Z,81.14
2022-11-29T22:59:08.907Z,80.03
2022-11-29T23:01:37.728Z,81.05
2022-11-29T23:04:05.540Z,82.26
2022-11-29T23:06:34.086Z,81.76
2022-11-29T23:09:06.016Z,82.27
2022-11-29T23:11:35.780Z,83.54
2022-11-29T23:14:02.351Z,84.11
2022-11-29T23:16:31.521Z,83.67
2022-11-29T23:18:58.844Z,82.79
2022-11-29T23:21:30.707Z,83.63
2022-11-29T23:23:57.571Z,82.69
2022-11-29T23:26:26.622Z,83.09
2022-11-29T23:28:53.957Z,84.17
2022-11-29T23:31:21.347Z,84.16
2022-11-29T23:33:48.113Z,83.51
2022-11-29T23:36:15.347Z,82.70
2022-11-29T23:38:42.376Z,83.26
2022-11-29T23:41:09.399Z,83.33
2022-11-29T23:43:37.630Z,82.50
2022-11-29T23:46:08.884Z,82.44
2022-11-29T23:48:35.698Z,83.07
2022-11-29T23:51:03.074Z,83.38
2022-11-29T23:53:29.755Z,83.69
2022-11-29T23:56:00.631Z,83.76
2022-11-29T23:58:27.729Z,82.49
